Terminal Aerodrome Forecast
Issued by NWS

Home | Current Version | Previous Version | Text Only | Print | Product List | Glossary Off
Versions: 1 2 3 4 5 6 7 8 9 10 11 12 13 14 15 16

000
FTUS43 KBIS 270232 AAA
TAFJMS
TAF AMD
KJMS 270232Z 2703/2724 08011KT P6SM VCSH SCT012 OVC025
     FM271300 07013KT P6SM VCSH OVC035
     FM271500 07017G25KT P6SM BKN080=

USA.gov is the U.S. government's official web portal to all federal, state and local government web resources and services.